Country
Station

 

Weather  for  Kiruna Airport  -  Sweden    Sweden

  
11 °C (52 °F)
    
 
 

Current METAR for Kiruna Airport is :

ESNQ 201950Z AUTO 11002KT 9999 OVC048/// 11/10 Q1009

 

This is a report for Kiruna Airport - Sweden.
 
The report was made 31 minutes ago, at 19:50 UTC .
The wind was blowing at a speed of 1.0 meters per second (2.3 miles per hour) from east/southeast (110°).
 
The temperature was 11 °C (52 °F), with a dew-point at 10 °C (50 °F).
The atmospheric pressure was 1009 hPa (29.80 inHg).
The relative humidity was 93.5%.
 
The overall visibility was greater than 10 kilometers (6.2 miles).
 

 
 
 
 

Country :   A   B   C   D   E   F   G   H   I   J   K   L   M   N   O   P   Q   R   S   T   U   V   W   Y   Z

 

Site Info  |  Disclaimer  |  Credits  |  Privacy
Contact us  |  Add to favorites
© 2013-2019 METARs - All rights reserved